createdAt,value
2019-04-20T00:00:01.046Z,10.03
2019-04-20T00:02:32.212Z,9.40
2019-04-20T00:05:23.204Z,8.40
2019-04-20T00:08:03.228Z,9.43
2019-04-20T00:10:54.278Z,9.20
2019-04-20T00:13:37.815Z,8.70
2019-04-20T00:16:10.453Z,9.80
2019-04-20T00:19:03.233Z,8.47
2019-04-20T00:24:38.630Z,9.37
2019-04-20T00:27:38.887Z,10.73
2019-04-20T00:30:21.086Z,9.17
2019-04-20T00:32:54.689Z,8.77
2019-04-20T00:35:25.080Z,10.10
2019-04-20T00:38:09.863Z,10.33
2019-04-20T00:40:59.434Z,9.73
2019-04-20T00:43:38.780Z,9.90
2019-04-20T00:46:26.360Z,8.90
2019-04-20T00:49:17.232Z,9.90
2019-04-20T00:52:13.140Z,8.60
2019-04-20T00:54:24.537Z,10.17
2019-04-20T00:57:24.687Z,9.90
2019-04-20T01:00:17.660Z,9.63
2019-04-20T01:02:50.498Z,9.40
2019-04-20T01:05:59.684Z,10.87
2019-04-20T01:08:40.252Z,8.93
2019-04-20T01:11:36.745Z,10.13
2019-04-20T01:14:15.611Z,9.57
2019-04-20T01:17:10.984Z,9.57
2019-04-20T01:19:42.829Z,9.50
2019-04-20T01:22:18.465Z,9.30
2019-04-20T01:25:11.196Z,9.73
2019-04-20T01:28:18.336Z,9.07
2019-04-20T01:30:30.309Z,10.47
2019-04-20T01:33:18.831Z,10.50
2019-04-20T01:36:03.553Z,9.40
2019-04-20T01:38:44.243Z,8.73
2019-04-20T01:41:07.865Z,9.60
2019-04-20T01:43:58.570Z,9.00
2019-04-20T01:46:53.544Z,8.70
2019-04-20T01:49:35.197Z,9.60
2019-04-20T01:55:45.706Z,9.00
2019-04-20T01:58:52.394Z,9.43
2019-04-20T02:01:34.377Z,9.27
2019-04-20T02:04:22.448Z,8.90
2019-04-20T02:07:02.935Z,9.43
2019-04-20T02:09:49.876Z,8.80
2019-04-20T02:12:30.427Z,9.00
2019-04-20T02:18:22.859Z,9.20
2019-04-20T02:21:22.089Z,8.77
2019-04-20T02:23:48.276Z,8.80
2019-04-20T02:26:18.060Z,9.40
2019-04-20T02:29:30.640Z,8.77
2019-04-20T02:35:27.891Z,9.50
2019-04-20T02:46:15.320Z,10.43
2019-04-20T02:49:10.138Z,9.57
2019-04-20T02:51:46.868Z,10.13
2019-04-20T02:54:28.549Z,9.10
2019-04-20T02:57:14.304Z,9.23
2019-04-20T03:00:03.200Z,8.97
2019-04-20T03:02:14.768Z,8.70
2019-04-20T03:04:49.155Z,9.40
2019-04-20T03:07:50.339Z,9.03
2019-04-20T03:10:43.411Z,9.90
2019-04-20T03:13:14.410Z,8.37
2019-04-20T03:16:00.106Z,9.50
2019-04-20T03:18:42.848Z,8.60
2019-04-20T03:21:27.369Z,8.63
2019-04-20T03:24:06.438Z,8.17
2019-04-20T03:26:59.814Z,9.60
2019-04-20T03:30:04.183Z,8.97
2019-04-20T03:33:12.658Z,8.50
2019-04-20T03:35:45.988Z,8.97
2019-04-20T03:38:20.095Z,7.47
2019-04-20T03:40:49.811Z,8.73
2019-04-20T03:43:20.181Z,8.57
2019-04-20T03:46:07.517Z,8.93
2019-04-20T03:49:05.906Z,8.53
2019-04-20T03:51:53.343Z,8.10
2019-04-20T03:54:43.449Z,8.43
2019-04-20T04:01:13.323Z,8.93
2019-04-20T04:04:19.408Z,9.50
2019-04-20T04:06:41.264Z,9.20
2019-04-20T04:09:21.399Z,9.10
2019-04-20T04:12:05.702Z,9.60
2019-04-20T04:14:35.256Z,10.40
2019-04-20T04:17:33.118Z,9.97
2019-04-20T04:20:20.717Z,10.67
2019-04-20T04:23:15.014Z,9.47
2019-04-20T04:26:01.933Z,10.70
2019-04-20T04:28:40.696Z,10.23
2019-04-20T04:31:28.119Z,9.90
2019-04-20T04:34:10.740Z,9.27
2019-04-20T04:36:59.357Z,9.10
2019-04-20T04:39:42.921Z,8.97
2019-04-20T04:42:35.144Z,9.80
2019-04-20T04:44:53.531Z,9.03
2019-04-20T04:47:32.566Z,9.67
2019-04-20T04:50:56.479Z,9.00
2019-04-20T04:53:40.822Z,10.50
2019-04-20T04:56:14.121Z,9.53
2019-04-20T04:58:53.705Z,10.50
2019-04-20T05:01:38.616Z,10.50
2019-04-20T05:07:49.589Z,9.50
2019-04-20T05:13:19.809Z,9.10
2019-04-20T05:16:33.747Z,7.97
2019-04-20T05:22:13.764Z,10.10
2019-04-20T05:25:10.644Z,9.17
2019-04-20T05:30:43.924Z,9.93
2019-04-20T05:33:25.440Z,8.60
2019-04-20T05:36:14.731Z,8.90
2019-04-20T05:39:05.219Z,8.67
2019-04-20T05:41:37.324Z,8.80
2019-04-20T05:47:24.025Z,9.03
2019-04-20T05:49:53.872Z,9.90
2019-04-20T05:52:53.663Z,9.33
2019-04-20T05:55:25.266Z,9.37
2019-04-20T05:58:08.821Z,10.50
2019-04-20T06:00:55.407Z,11.00
2019-04-20T06:03:33.571Z,11.57
2019-04-20T06:06:16.818Z,10.37
2019-04-20T06:08:59.631Z,11.03
2019-04-20T06:11:52.371Z,13.03
2019-04-20T06:14:39.199Z,11.37
2019-04-20T06:20:31.292Z,11.43
2019-04-20T06:23:34.628Z,11.10
2019-04-20T06:26:33.585Z,11.20
2019-04-20T06:29:18.430Z,11.00
2019-04-20T06:32:05.090Z,10.70
2019-04-20T06:35:02.480Z,10.23
2019-04-20T06:37:29.297Z,11.97
2019-04-20T06:40:35.126Z,11.30
2019-04-20T06:42:59.957Z,11.33
2019-04-20T06:45:51.142Z,11.37
2019-04-20T06:48:36.346Z,11.67
2019-04-20T06:51:09.205Z,11.03
2019-04-20T06:53:51.560Z,13.20
2019-04-20T06:56:42.081Z,12.47
2019-04-20T06:59:27.577Z,12.00
2019-04-20T07:02:11.709Z,12.60
2019-04-20T07:04:48.135Z,12.67
2019-04-20T07:07:27.921Z,13.87
2019-04-20T07:10:08.692Z,13.30
2019-04-20T07:12:33.059Z,13.27
2019-04-20T07:15:19.894Z,12.23
2019-04-20T07:18:09.535Z,13.20
2019-04-20T07:21:09.878Z,13.22
2019-04-20T07:23:41.865Z,12.67
2019-04-20T07:26:24.203Z,12.90
2019-04-20T07:29:07.129Z,13.40
2019-04-20T07:31:44.544Z,13.30
2019-04-20T07:34:34.822Z,12.90
2019-04-20T07:40:15.151Z,13.73
2019-04-20T07:42:58.995Z,14.30
2019-04-20T07:45:36.478Z,14.90
2019-04-20T07:48:26.211Z,15.40
2019-04-20T07:50:56.829Z,15.70
2019-04-20T07:53:42.218Z,15.20
2019-04-20T07:56:32.611Z,15.73
2019-04-20T07:58:57.105Z,15.53
2019-04-20T08:02:29.430Z,14.83
2019-04-20T08:10:28.715Z,15.83
2019-04-20T08:13:21.563Z,14.30
2019-04-20T08:16:00.956Z,14.03
2019-04-20T08:18:41.268Z,14.60
2019-04-20T08:21:22.863Z,13.77
2019-04-20T08:24:02.414Z,13.53
2019-04-20T08:26:30.951Z,12.57
2019-04-20T08:35:20.104Z,13.73
2019-04-20T08:38:32.613Z,13.20
2019-04-20T08:40:44.161Z,12.97
2019-04-20T08:43:39.585Z,13.67
2019-04-20T08:46:05.510Z,11.80
2019-04-20T08:48:46.788Z,11.87
2019-04-20T08:51:41.640Z,11.40
2019-04-20T08:54:14.374Z,12.97
2019-04-20T08:56:46.188Z,11.80
2019-04-20T08:59:23.266Z,9.83
2019-04-20T09:02:09.882Z,9.80
2019-04-20T09:04:55.231Z,9.33
2019-04-20T09:07:32.054Z,10.93
2019-04-20T09:13:26.966Z,9.37
2019-04-20T09:16:10.858Z,8.83
2019-04-20T09:18:56.406Z,7.30
2019-04-20T09:21:40.266Z,7.20
2019-04-20T09:24:38.197Z,7.70
2019-04-20T09:30:05.795Z,5.97
2019-04-20T09:32:43.949Z,5.97
2019-04-20T09:35:38.729Z,6.60
2019-04-20T09:38:14.456Z,6.07
2019-04-20T09:41:03.580Z,6.00
2019-04-20T09:43:38.996Z,5.77
2019-04-20T09:46:16.002Z,6.50
2019-04-20T09:48:51.193Z,5.93
2019-04-20T09:51:55.126Z,6.00
2019-04-20T09:54:40.304Z,6.17
2019-04-20T09:57:26.790Z,5.83
2019-04-20T10:00:10.254Z,6.10
2019-04-20T10:02:35.007Z,5.97
2019-04-20T10:05:15.682Z,5.17
2019-04-20T10:10:43.806Z,6.07
2019-04-20T10:13:27.178Z,6.07
2019-04-20T10:16:09.198Z,5.73
2019-04-20T10:18:59.004Z,6.00
2019-04-20T10:21:48.758Z,5.37
2019-04-20T10:24:39.564Z,5.40
2019-04-20T10:27:10.683Z,5.73
2019-04-20T10:30:02.758Z,6.20
2019-04-20T10:32:53.937Z,5.63
2019-04-20T10:35:29.832Z,5.40
2019-04-20T10:38:27.864Z,6.17
2019-04-20T10:41:11.463Z,5.67
2019-04-20T10:43:47.216Z,6.40
2019-04-20T10:46:37.002Z,5.60
2019-04-20T10:49:27.134Z,5.40
2019-04-20T10:52:09.837Z,6.10
2019-04-20T10:55:00.644Z,6.07
2019-04-20T10:57:43.801Z,6.00
2019-04-20T11:04:02.952Z,5.33
2019-04-20T11:06:47.551Z,6.57
2019-04-20T11:09:18.504Z,5.60
2019-04-20T11:12:10.440Z,6.20
2019-04-20T11:14:48.010Z,5.80
2019-04-20T11:17:31.707Z,5.40
2019-04-20T11:23:18.219Z,5.60
2019-04-20T11:26:08.516Z,5.17
2019-04-20T11:28:52.291Z,5.30
2019-04-20T11:31:40.920Z,5.60
2019-04-20T11:34:14.909Z,6.00
2019-04-20T11:36:55.098Z,5.33
2019-04-20T11:40:06.278Z,5.70
2019-04-20T11:42:41.787Z,5.60
2019-04-20T11:45:32.914Z,5.70
2019-04-20T11:48:23.377Z,5.70
2019-04-20T11:51:01.396Z,5.90
2019-04-20T11:53:43.331Z,5.60
2019-04-20T11:56:38.308Z,5.20
2019-04-20T12:03:21.824Z,6.07
2019-04-20T12:05:53.700Z,5.37
2019-04-20T12:09:14.941Z,5.73
2019-04-20T12:12:10.193Z,5.57
2019-04-20T12:14:40.978Z,5.47
2019-04-20T12:17:23.793Z,5.93
2019-04-20T12:23:18.107Z,6.30
2019-04-20T12:25:48.456Z,5.87
2019-04-20T12:28:38.264Z,5.90
2019-04-20T12:31:29.317Z,5.20
2019-04-20T12:34:11.449Z,4.90
2019-04-20T12:36:55.309Z,5.83
2019-04-20T12:39:33.131Z,6.43
2019-04-20T12:42:11.125Z,6.23
2019-04-20T12:44:53.392Z,6.57
2019-04-20T12:47:57.600Z,6.00
2019-04-20T12:50:39.749Z,6.23
2019-04-20T12:53:10.629Z,5.97
2019-04-20T12:56:02.291Z,5.27
2019-04-20T12:58:45.190Z,6.33
2019-04-20T13:01:35.434Z,5.40
2019-04-20T13:04:26.813Z,5.30
2019-04-20T13:07:10.175Z,6.10
2019-04-20T13:13:32.618Z,5.90
2019-04-20T13:19:13.192Z,5.63
2019-04-20T13:21:44.796Z,5.70
2019-04-20T13:24:35.098Z,5.17
2019-04-20T13:27:25.093Z,5.97
2019-04-20T13:30:48.060Z,5.53
2019-04-20T13:33:25.209Z,5.83
2019-04-20T13:35:56.397Z,5.50
2019-04-20T13:38:48.013Z,6.13
2019-04-20T13:41:24.598Z,5.93
2019-04-20T13:43:57.917Z,4.73
2019-04-20T13:46:40.921Z,6.03
2019-04-20T13:49:22.971Z,4.90
2019-04-20T13:52:00.064Z,6.00
2019-04-20T13:54:32.087Z,5.53
2019-04-20T14:00:29.505Z,5.90
2019-04-20T14:03:20.604Z,5.03
2019-04-20T14:05:56.841Z,5.47
2019-04-20T14:08:47.382Z,5.93
2019-04-20T14:11:29.743Z,5.77
2019-04-20T14:14:19.528Z,4.90
2019-04-20T14:17:10.535Z,5.03
2019-04-20T14:19:53.038Z,4.80
2019-04-20T14:22:36.562Z,4.80
2019-04-20T14:25:13.207Z,5.43
2019-04-20T14:27:57.267Z,4.87
2019-04-20T14:30:40.173Z,4.80
2019-04-20T14:33:23.077Z,4.33
2019-04-20T14:36:00.976Z,4.87
2019-04-20T14:38:56.288Z,4.90
2019-04-20T14:41:46.522Z,4.40
2019-04-20T14:47:19.261Z,5.33
2019-04-20T14:50:02.977Z,4.47
2019-04-20T14:52:39.708Z,4.87
2019-04-20T14:55:22.563Z,4.13
2019-04-20T15:01:27.213Z,4.57
2019-04-20T15:04:20.359Z,4.40
2019-04-20T15:07:00.399Z,4.72
2019-04-20T15:09:32.554Z,3.80
2019-04-20T15:12:22.295Z,4.10
2019-04-20T15:15:12.559Z,4.10
2019-04-20T15:20:42.097Z,3.80
2019-04-20T15:23:33.132Z,3.72
2019-04-20T15:26:16.072Z,3.47
2019-04-20T15:28:52.588Z,4.10
2019-04-20T15:31:43.778Z,3.58
2019-04-20T15:34:35.022Z,4.40
2019-04-20T15:37:18.174Z,3.87
2019-04-20T15:39:54.946Z,4.20
